Flight Track Log - Related Links

Times and Time Zones

All times are in EDT time to prevent confusion due to time zone crossing. See the EJA929 flight status page for this flight to view local times or setup timezone preferences in your user account.

Time Position Orientation Groundspeed Altitude Reporting Facility
EDT Latitude Longitude Course Direction KTS MPH feet Rate Location/Type
Sun 01:13:43 PM 41.0500 -73.7667 255° West 220 253 4,300  Level New York TRACON
Sun 01:14:43 PM 41.0333 -73.8500 255° West 258 297 6,400 2,450 Climbing New York TRACON
Sun 01:15:43 PM 41.0167 -73.9500 258° West 265 305 9,200 2,350 Climbing New York TRACON
Sun 01:16:43 PM 41.0000 -74.0500 258° West 290 334 11,100 1,675 Climbing New York TRACON
Sun 01:18:17 PM 40.9728 -74.2558 260° West 381 438 13,500 1,776 Climbing New York Center
Sun 01:19:15 PM 40.9500 -74.3867 257° West 406 467 15,600 1,765 Climbing New York Center
Sun 01:20:16 PM 40.9242 -74.5500 258° West 413 475 17,000 694 Climbing New York Center
Sun 01:21:16 PM 40.9072 -74.6864 261° West 413 475 17,000 446 Level New York Center
Sun 01:22:17 PM 40.8806 -74.8550 258° West 424 488 17,900 1,180 Climbing New York Center
Sun 01:23:18 PM 40.8614 -74.9881 259° West 429 494 19,400 1,627 Climbing New York Center
Sun 01:24:15 PM 40.8392 -75.1350 259° West 418 481 21,100 1,513 Climbing New York Center
Sun 01:25:17 PM 40.8144 -75.2950 259° West 418 481 22,400 1,033 Climbing New York Center
Sun 01:26:17 PM 40.7947 -75.4281 259° West 418 481 23,200 915 Climbing New York Center
Sun 01:27:15 PM 40.7681 -75.5769 257° West 418 481 24,200 1,008 Climbing New York Center
Sun 01:28:16 PM 40.7450 -75.7289 259° West 423 487 25,200 1,024 Climbing New York Center
Sun 01:29:18 PM 40.7239 -75.8806 260° West 428 493 26,300 1,008 Climbing New York Center
Sun 01:30:15 PM 40.6983 -76.0375 258° West 428 493 27,200 1,017 Climbing New York Center
Sun 01:31:16 PM 40.6725 -76.1914 258° West 433 498 28,300 1,050 Climbing New York Center
Sun 01:32:15 PM 40.6756 -76.3506 272° West 438 504 29,300 1,000 Climbing New York Center
Sun 01:33:16 PM 40.6928 -76.5161 278° West 443 510 30,300 984 Climbing New York Center
Sun 01:34:17 PM 40.7097 -76.6792 278° West 448 516 31,300 1,000 Climbing New York Center
Sun 01:35:16 PM 40.7281 -76.8506 278° West 458 527 32,300 1,000 Climbing New York Center
Sun 01:36:17 PM 40.7442 -77.0217 277° West 474 545 33,300 1,008 Climbing New York Center
Sun 01:37:15 PM 40.7597 -77.1986 277° West 479 551 34,300 1,034 Climbing New York Center
Sun 01:39:11 PM 40.7942 -77.5522 277° West 491 565 36,300 1,023 Climbing Cleveland Center
Sun 01:40:11 PM 40.8092 -77.7300 276° West 491 565 37,300 850 Climbing Cleveland Center
Sun 01:41:11 PM 40.8261 -77.9131 277° West 503 579 38,000 350 Climbing Cleveland Center
Sun 01:42:11 PM 40.8428 -78.1019 277° West 508 585 38,000  Level Cleveland Center
Sun 01:43:11 PM 40.8589 -78.2742 277° West 515 593 38,000  Level Cleveland Center
Sun 01:44:11 PM 40.8772 -78.4714 277° West 534 615 38,000  Level Cleveland Center
Sun 01:45:11 PM 40.8933 -78.6658 276° West 541 623 38,000  Level Cleveland Center
Sun 01:46:11 PM 40.9089 -78.8606 276° West 541 623 38,000  Level Cleveland Center
Sun 01:47:11 PM 40.9222 -79.0581 275° West 541 623 38,000  Level Cleveland Center
Sun 01:48:11 PM 40.9372 -79.2556 276° West 536 617 38,000  Level Cleveland Center
Sun 01:49:11 PM 40.9517 -79.4506 276° West 536 617 38,000  Level Cleveland Center
Sun 01:50:11 PM 40.9681 -79.6456 276° West 536 617 38,000  Level Cleveland Center
Sun 01:51:11 PM 40.9822 -79.8625 275° West 542 624 38,000  Level Cleveland Center
Sun 01:52:11 PM 40.9958 -80.0578 275° West 542 624 38,000  Level Cleveland Center
Sun 01:53:11 PM 41.0089 -80.2556 275° West 537 618 38,000  Level Cleveland Center
Sun 01:54:11 PM 41.0219 -80.4511 275° West 537 618 38,000  Level Cleveland Center
Sun 01:56:11 PM 41.0467 -80.8419 275° West 537 618 38,000  Level Cleveland Center
Sun 01:57:11 PM 41.0586 -81.0375 275° West 537 618 38,000 -50 Level Cleveland Center
Sun 01:58:11 PM 41.0658 -81.2331 273° West 537 618 37,900  Descending Cleveland Center
Sun 01:59:11 PM 41.0753 -81.4094 274° West 537 618 38,000 50 Climbing Cleveland Center
Sun 02:00:11 PM 41.0861 -81.6106 274° West 537 618 38,000  Level Cleveland Center
Sun 02:01:11 PM 41.0967 -81.8092 274° West 543 625 38,000  Level Cleveland Center
Sun 02:02:11 PM 41.1086 -82.0300 274° West 549 632 38,000  Level Cleveland Center
Sun 02:03:11 PM 41.1183 -82.2258 274° West 549 632 38,000  Level Cleveland Center
Sun 02:04:11 PM 41.1300 -82.4247 275° West 549 632 38,000  Level Cleveland Center
Sun 02:05:11 PM 41.1369 -82.6233 273° West 549 632 38,000  Level Cleveland Center
Sun 02:06:11 PM 41.1481 -82.8194 274° West 544 626 38,000  Level Cleveland Center
Sun 02:07:11 PM 41.1564 -83.0211 273° West 544 626 38,000  Level Cleveland Center
Sun 02:08:11 PM 41.1608 -83.2006 272° West 544 626 38,000  Level Cleveland Center
Sun 02:09:11 PM 41.1686 -83.3994 273° West 550 633 38,000  Level Cleveland Center
Sun 02:10:11 PM 41.1781 -83.6014 274° West 550 633 38,000  Level Cleveland Center
Sun 02:11:11 PM 41.1850 -83.8031 273° West 556 640 38,000  Level Cleveland Center
Sun 02:11:56 PM 41.1939 -83.9581 274° West 548 631 38,000  Level Chicago Center
Sun 02:12:59 PM 41.2003 -84.1594 272° West 547 629 38,000  Level Chicago Center
Sun 02:14:00 PM 41.2069 -84.3606 273° West 547 629 38,000  Level Chicago Center
Sun 02:15:02 PM 41.2128 -84.5625 272° West 547 629 38,000  Level Chicago Center
Sun 02:16:04 PM 41.2186 -84.8025 272° West 543 625 38,000  Level Chicago Center
Sun 02:17:06 PM 41.2250 -85.0039 272° West 543 625 38,000  Level Chicago Center
Sun 02:18:08 PM 41.2297 -85.2039 272° West 540 621 38,000  Level Chicago Center
Sun 02:19:10 PM 41.2336 -85.4039 272° West 538 619 38,000  Level Chicago Center
Sun 02:20:12 PM 41.2378 -85.6028 272° West 535 616 38,000  Level Chicago Center
Sun 02:21:14 PM 41.2414 -85.8014 271° West 533 613 38,000  Level Chicago Center
Sun 02:22:16 PM 41.2444 -85.9992 271° West 534 615 38,000  Level Chicago Center
Sun 02:23:18 PM 41.2481 -86.1986 271° West 540 621 38,000  Level Chicago Center
Sun 02:24:20 PM 41.2511 -86.4367 271° West 538 619 38,000  Level Chicago Center
Sun 02:25:22 PM 41.2531 -86.6294 271° West 526 605 38,000  Level Chicago Center
Sun 02:26:24 PM 41.2547 -86.8261 271° West 518 596 38,000  Level Chicago Center
Sun 02:27:26 PM 41.2572 -87.0156 271° West 516 594 38,000  Level Chicago Center
Sun 02:28:28 PM 41.2586 -87.2056 271° West 520 598 38,000  Level Chicago Center
Sun 02:29:30 PM 41.2594 -87.3947 270° West 517 595 38,000  Level Chicago Center
Sun 02:30:32 PM 41.2608 -87.6233 271° West 519 597 38,000  Level Chicago Center
Sun 02:31:34 PM 41.2614 -87.8136 270° West 517 595 38,000  Level Chicago Center
Sun 02:32:36 PM 41.2603 -88.0061 270° West 515 593 38,000  Level Chicago Center
Sun 02:33:38 PM 41.2592 -88.2039 270° West 525 604 38,000 48 Level Chicago Center
Sun 02:34:40 PM 41.2597 -88.3956 270° West 518 596 38,100 290 Climbing Chicago Center
Sun 02:35:42 PM 41.2592 -88.5856 270° West 515 593 38,600 537 Climbing Chicago Center
Sun 02:36:43 PM 41.2578 -88.7731 269° West 511 588 39,200 780 Climbing Chicago Center
Sun 02:37:45 PM 41.2589 -88.9589 271° West 503 579 40,200 1,065 Climbing Chicago Center
Sun 02:38:47 PM 41.2567 -89.1756 269° West 492 566 41,400 871 Climbing Chicago Center
Sun 02:39:49 PM 41.2542 -89.3600 269° West 489 563 42,000 484 Climbing Chicago Center
Sun 02:40:51 PM 41.2511 -89.5422 269° West 496 571 42,400 435 Climbing Chicago Center
Sun 02:41:53 PM 41.2489 -89.7242 269° West 497 572 42,900 290 Climbing Chicago Center
Sun 02:42:55 PM 41.2461 -89.9078 269° West 502 578 43,000 48 Climbing Chicago Center
Sun 02:43:57 PM 41.2428 -90.0928 269° West 504 580 43,000  Level Chicago Center
Sun 02:44:59 PM 41.2736 -90.3153 281° West 514 592 43,000  Level Chicago Center
Sun 02:46:01 PM 41.2611 -90.5047 265° West 518 596 43,000  Level Chicago Center
Sun 02:47:03 PM 41.2392 -90.6914 261° West 517 595 43,000  Level Chicago Center
Sun 02:48:05 PM 41.2208 -90.8744 262° West 508 585 43,000  Level Chicago Center
Sun 02:49:07 PM 41.2094 -91.0572 265° West 502 578 43,000  Level Chicago Center
Sun 02:50:09 PM 41.1969 -91.2422 265° West 503 579 43,000  Level Chicago Center
Sun 02:51:11 PM 41.1814 -91.4628 265° West 501 577 43,000  Level Chicago Center
Sun 02:52:13 PM 41.1675 -91.6483 264° West 506 582 43,000  Level Chicago Center
Sun 02:53:15 PM 41.1528 -91.8483 264° West 508 585 43,000  Level Chicago Center
Sun 02:54:17 PM 41.1394 -92.0314 265° West 507 583 43,000  Level Chicago Center
Sun 02:55:19 PM 41.1244 -92.2136 264° West 504 580 43,000  Level Chicago Center
Sun 02:56:21 PM 41.1106 -92.3953 264° West 502 578 43,000  Level Chicago Center
Sun 02:57:23 PM 41.0958 -92.5708 264° West 490 564 43,000  Level Chicago Center
Sun 02:58:25 PM 41.0783 -92.7811 264° West 486 559 43,000  Level Chicago Center
Sun 02:59:27 PM 41.0644 -92.9539 264° West 481 554 43,000  Level Chicago Center
Sun 03:00:29 PM 41.0494 -93.1292 264° West 485 558 43,000  Level Chicago Center
Sun 03:01:31 PM 41.0336 -93.3058 263° West 489 563 43,000 242 Level Chicago Center
Sun 03:02:33 PM 41.0272 -93.5167 268° West 487 560 43,500 484 Climbing Chicago Center
Sun 03:03:35 PM 41.0319 -93.6892 272° West 477 549 44,000 484 Climbing Chicago Center
Sun 03:04:37 PM 41.0350 -93.8578 271° West 465 535 44,500 484 Climbing Chicago Center
Sun 03:05:39 PM 41.0331 -94.0244 269° West 459 528 45,000 242 Climbing Chicago Center
Sun 03:06:41 PM 41.0311 -94.1908 269° West 458 527 45,000  Level Chicago Center
Sun 03:07:43 PM 41.0308 -94.3892 270° West 455 524 45,000  Level Chicago Center
Sun 03:09:13 PM 41.0261 -94.6122 268° West 453 521 45,000  Level Minneapolis Center
Sun 03:10:14 PM 41.0106 -94.7425 261° West 447 514 45,000  Level Minneapolis Center
Sun 03:11:17 PM 40.9847 -94.9750 262° West 452 520 45,000  Level Minneapolis Center
Sun 03:12:19 PM 40.9661 -95.1369 261° West 449 517 45,000  Level Minneapolis Center
Sun 03:13:21 PM 40.9475 -95.3022 262° West 449 517 45,000  Level Minneapolis Center
Sun 03:14:23 PM 40.9322 -95.4361 261° West 455 524 45,000  Level Minneapolis Center
Sun 03:15:25 PM 40.9086 -95.6353 261° West 456 525 45,000  Level Minneapolis Center
Sun 03:16:40 PM 40.8858 -95.8336 261° West 453 521 45,000  Level Minneapolis Center
Sun 03:17:42 PM 40.8628 -96.0350 261° West 458 527 45,000  Level Minneapolis Center
Sun 03:18:44 PM 40.8425 -96.2025 261° West 458 527 45,000  Level Minneapolis Center
Sun 03:19:46 PM 40.8233 -96.3692 261° West 458 527 45,000  Level Minneapolis Center
Sun 03:20:48 PM 40.8025 -96.5356 261° West 457 526 45,000  Level Minneapolis Center
Sun 03:21:50 PM 40.7822 -96.7008 261° West 457 526 45,000  Level Minneapolis Center
Sun 03:22:52 PM 40.7617 -96.8675 261° West 458 527 45,000  Level Minneapolis Center
Sun 03:23:54 PM 40.7408 -97.0336 261° West 459 528 45,000  Level Minneapolis Center
Sun 03:24:56 PM 40.7186 -97.2003 260° West 461 531 45,000  Level Minneapolis Center
Sun 03:25:58 PM 40.6917 -97.4089 260° West 465 535 45,000  Level Minneapolis Center
Sun 03:27:00 PM 40.6692 -97.5756 260° West 463 533 45,000  Level Minneapolis Center
Sun 03:28:03 PM 40.6475 -97.7439 260° West 464 534 45,000  Level Minneapolis Center
Sun 03:29:05 PM 40.6247 -97.9092 260° West 460 529 45,000  Level Minneapolis Center
Sun 03:30:07 PM 40.6028 -98.0756 260° West 460 529 45,000  Level Minneapolis Center
Sun 03:31:09 PM 40.5797 -98.2400 260° West 457 526 45,000  Level Minneapolis Center
Sun 03:32:11 PM 40.5564 -98.4056 260° West 457 526 45,000  Level Minneapolis Center
Sun 03:33:13 PM 40.5333 -98.5733 260° West 461 531 45,000  Level Minneapolis Center
Sun 03:34:15 PM 40.5047 -98.7739 259° West 462 532 45,000  Level Minneapolis Center
Sun 03:35:17 PM 40.4806 -98.9417 259° West 463 533 45,000  Level Minneapolis Center
Sun 03:36:19 PM 40.4558 -99.1100 259° West 466 536 45,000  Level Minneapolis Center
Sun 03:37:21 PM 40.4319 -99.2792 260° West 468 539 45,000  Level Minneapolis Center
Sun 03:38:23 PM 40.4064 -99.4469 259° West 468 539 45,000  Level Minneapolis Center
Sun 03:39:25 PM 40.3822 -99.6153 259° West 468 539 45,000  Level Minneapolis Center
Sun 03:40:27 PM 40.3567 -99.7806 259° West 464 534 45,000  Level Minneapolis Center
Sun 03:41:31 PM 40.3278 -99.9742 259° West 460 529 45,000  Level Denver Center
Sun 03:42:33 PM 40.3025 -100.1303 258° West 457 526 45,000 -97 Level Denver Center
Sun 03:43:35 PM 40.2739 -100.3131 258° West 458 527 44,800 -720 Descending Denver Center
Sun 03:44:38 PM 40.2478 -100.4747 258° West 470 541 43,500 -1,488 Descending Denver Center
Sun 03:45:40 PM 40.2181 -100.6653 259° West 476 548 41,700 -1,561 Descending Denver Center
Sun 03:46:41 PM 40.1919 -100.8272 258° West 474 545 40,300 -829 Descending Denver Center
Sun 03:47:43 PM 40.1617 -101.0147 258° West 471 542 40,000 -145 Descending Denver Center
Sun 03:48:45 PM 40.1347 -101.1761 258° West 473 544 40,000  Level Denver Center
Sun 03:49:47 PM 40.1083 -101.3369 258° West 472 543 40,000  Level Denver Center
Sun 03:50:49 PM 40.0769 -101.5242 258° West 472 543 40,000  Level Denver Center
Sun 03:51:51 PM 40.0500 -101.6825 258° West 469 540 40,000  Level Denver Center
Sun 03:52:53 PM 40.0175 -101.8672 257° West 468 539 40,000  Level Denver Center
Sun 03:53:55 PM 39.9908 -102.0264 258° West 468 539 40,000  Level Denver Center
Sun 03:54:57 PM 39.9583 -102.2117 257° West 470 541 40,000  Level Denver Center
Sun 03:55:59 PM 39.9306 -102.3697 257° West 467 537 40,000  Level Denver Center
Sun 03:57:01 PM 39.8978 -102.5542 257° West 469 540 40,000  Level Denver Center
Sun 03:58:03 PM 39.8675 -102.7217 257° West 467 537 40,000  Level Denver Center
Sun 03:59:04 PM 39.8372 -102.8858 257° West 467 537 40,000  Level Denver Center
Sun 04:00:06 PM 39.8072 -103.0497 257° West 467 537 40,000  Level Denver Center
Sun 04:01:08 PM 39.7769 -103.2125 256° West 464 534 40,000  Level Denver Center
Sun 04:02:10 PM 39.7472 -103.3764 257° West 466 536 40,000  Level Denver Center
Sun 04:03:12 PM 39.7167 -103.5406 256° West 468 539 40,000  Level Denver Center
Sun 04:04:14 PM 39.6797 -103.7350 256° West 465 535 40,000  Level Denver Center
Sun 04:05:16 PM 39.6494 -103.9011 257° West 465 535 40,000  Level Denver Center
Sun 04:06:18 PM 39.6175 -104.0631 256° West 459 528 40,000  Level Denver Center
Sun 04:07:19 PM 39.5858 -104.2269 256° West 469 540 40,000  Level Denver Center
Sun 04:08:21 PM 39.5542 -104.3886 256° West 462 532 40,000  Level Denver Center
Sun 04:09:23 PM 39.5222 -104.5489 256° West 456 525 40,000  Level Denver Center
Sun 04:10:25 PM 39.4856 -104.7161 254° West 476 548 40,000  Level Denver Center
Sun 04:11:27 PM 39.4553 -104.8806 257° West 453 521 40,000  Level Denver Center
Sun 04:12:28 PM 39.4228 -105.0431 256° West 467 537 40,000  Level Denver Center
Sun 04:13:30 PM 39.3892 -105.2058 255° West 467 537 40,000  Level Denver Center
Sun 04:14:32 PM 39.3500 -105.3989 255° West 469 540 40,000  Level Denver Center
Sun 04:15:34 PM 39.3186 -105.5556 256° West 446 513 40,000  Level Denver Center
Sun 04:16:36 PM 39.2858 -105.7139 255° West 454 522 40,000  Level Denver Center
Sun 04:17:37 PM 39.2517 -105.8728 255° West 460 529 40,000  Level Denver Center
Sun 04:18:39 PM 39.2189 -106.0322 255° West 460 529 40,000  Level Denver Center
Sun 04:19:41 PM 39.1833 -106.1969 254° West 458 527 40,000  Level Denver Center
Sun 04:20:43 PM 39.1453 -106.3747 255° West 461 531 40,000  Level Denver Center
Sun 04:21:44 PM 39.1119 -106.5267 254° West 461 531 40,000  Level Denver Center
Sun 04:22:46 PM 39.0733 -106.7042 254° West 460 529 40,000  Level Denver Center
Sun 04:23:48 PM 39.0392 -106.8564 254° West 461 531 40,000  Level Denver Center
Sun 04:24:50 PM 39.0053 -107.0078 254° West 461 531 40,000  Level Denver Center
Sun 04:25:52 PM 38.9661 -107.1867 254° West 465 535 40,000  Level Denver Center
Sun 04:26:53 PM 38.9317 -107.3392 254° West 464 534 40,000  Level Denver Center
Sun 04:27:55 PM 38.8908 -107.5164 254° West 463 533 40,000  Level Denver Center
Sun 04:28:57 PM 38.8569 -107.6658 254° West 455 524 40,000  Level Denver Center
Sun 04:29:59 PM 38.8158 -107.8442 254° West 464 534 40,000  Level Denver Center
Sun 04:31:01 PM 38.7814 -107.9967 254° West 465 535 40,000  Level Denver Center
Sun 04:32:02 PM 38.7464 -108.1481 254° West 462 532 40,000  Level Denver Center
Sun 04:33:04 PM 38.7042 -108.3261 253° West 465 535 40,000  Level Denver Center
Sun 04:34:06 PM 38.6686 -108.4789 253° West 466 536 40,000  Level Denver Center
Sun 04:35:08 PM 38.6267 -108.6558 253° West 464 534 40,000  Level Denver Center
Sun 04:36:10 PM 38.5903 -108.8097 253° West 470 541 40,000  Level Denver Center
Sun 04:37:12 PM 38.5475 -108.9881 253° West 470 541 40,000  Level Denver Center
Sun 04:38:13 PM 38.5103 -109.1397 253° West 469 540 40,000  Level Denver Center
Sun 04:39:15 PM 38.4733 -109.2950 253° West 474 545 40,000  Level Denver Center
Sun 04:40:17 PM 38.4292 -109.4722 252° West 471 542 40,000  Level Denver Center
Sun 04:41:19 PM 38.3914 -109.6233 252° West 467 537 40,000  Level Denver Center
Sun 04:42:21 PM 38.3464 -109.8014 252° West 472 543 40,000  Level Denver Center
Sun 04:43:23 PM 38.3092 -109.9542 253° West 470 541 40,000  Level Denver Center
Sun 04:44:25 PM 38.2625 -110.1322 252° West 475 547 40,000  Level Denver Center
Sun 04:45:20 PM 38.2172 -110.2544 245° Southwest 476 548 40,000  Level Salt Lake Center
Sun 04:46:22 PM 38.1500 -110.4200 243° Southwest 473 544 40,000 -290 Level Salt Lake Center
Sun 04:47:24 PM 38.0933 -110.5600 243° Southwest 468 539 39,400 -1,062 Descending Salt Lake Center
Sun 04:48:32 PM 38.0250 -110.7208 242° Southwest 464 534 37,700 -1,662 Descending Denver Center
Sun 04:49:34 PM 37.9547 -110.8917 242° Southwest 469 540 35,800 -1,780 Descending Denver Center
Sun 04:50:30 PM 37.9064 -111.0108 243° Southwest 473 544 34,200 -1,831 Descending Salt Lake Center
Sun 04:51:32 PM 37.8444 -111.1619 243° Southwest 481 554 32,200 -1,951 Descending Salt Lake Center
Sun 04:52:33 PM 37.7822 -111.3125 242° Southwest 482 555 30,200 -1,073 Descending Salt Lake Center
Sun 04:53:35 PM 37.7064 -111.4947 242° Southwest 487 560 30,000 -97 Descending Salt Lake Center
Sun 04:54:37 PM 37.6428 -111.6444 242° Southwest 485 558 30,000  Level Salt Lake Center
Sun 04:55:39 PM 37.5800 -111.7953 242° Southwest 486 559 30,000  Level Salt Lake Center
Sun 04:56:41 PM 37.5150 -111.9467 242° Southwest 489 563 30,000  Level Salt Lake Center
Sun 04:57:43 PM 37.4506 -112.0981 242° Southwest 489 563 30,000 -536 Level Salt Lake Center
Sun 04:58:33 PM 37.3967 -112.2206 241° Southwest 493 567 29,000 -1,286 Descending Los Angeles Center
Sun 04:59:35 PM 37.3325 -112.3706 242° Southwest 486 559 27,600 -1,694 Descending Los Angeles Center
Sun 05:00:37 PM 37.2561 -112.5461 241° Southwest 476 548 25,500 -1,742 Descending Los Angeles Center
Sun 05:01:39 PM 37.1928 -112.6908 241° Southwest 470 541 24,000 -726 Descending Los Angeles Center
Sun 05:02:41 PM 37.1314 -112.8325 242° Southwest 460 529 24,000  Level Los Angeles Center
Sun 05:03:44 PM 37.0689 -112.9742 241° Southwest 461 531 24,000  Level Los Angeles Center
Sun 05:04:46 PM 37.0067 -113.1161 241° Southwest 463 533 24,000  Level Los Angeles Center
Sun 05:05:48 PM 36.9431 -113.2578 241° Southwest 466 536 24,000  Level Los Angeles Center
Sun 05:06:50 PM 36.8817 -113.3997 242° Southwest 464 534 24,000  Level Los Angeles Center
Sun 05:07:52 PM 36.8053 -113.5689 241° Southwest 466 536 24,000  Level Los Angeles Center
Sun 05:08:54 PM 36.7425 -113.7108 241° Southwest 467 537 24,000 -581 Level Los Angeles Center
Sun 05:09:56 PM 36.6792 -113.8517 241° Southwest 466 536 22,800 -1,742 Descending Los Angeles Center
Sun 05:10:58 PM 36.6183 -113.9897 241° Southwest 457 526 20,400 -2,226 Descending Los Angeles Center
Sun 05:12:00 PM 36.5572 -114.1211 240° Southwest 442 509 18,200 -2,400 Descending Los Angeles Center
Sun 05:12:43 PM 36.5108 -114.2283 242° Southwest 445 512 16,200 -2,449 Descending Los Angeles Center
Sun 05:13:38 PM 36.4586 -114.3428 240° Southwest 420 483 14,200 -2,017 Descending Los Angeles Center
Sun 05:14:39 PM 36.4086 -114.4483 240° Southwest 352 405 12,300 -1,091 Descending Los Angeles Center
Sun 05:15:39 PM 36.3411 -114.4953 209° Southwest 272 313 12,000 -200 Descending Los Angeles Center
Sun 05:16:09 PM 36.3158 -114.4989 187° South 264 304 12,000 -787 Level Los Angeles Center
Sun 05:16:40 PM 36.2756 -114.5122 195° South 242 278 11,200 -1,258 Descending Los Angeles Center
Sun 05:17:11 PM 36.2525 -114.5228 200° South 242 278 10,700 -1,180 Descending Los Angeles Center
Sun 05:17:41 PM 36.2250 -114.5667 232° Southwest 242 278 10,000 -1,258 Descending Los Angeles Center
Sun 05:18:13 PM 36.1997 -114.5975 225° Southwest 234 269 9,400 -1,149 Descending Los Angeles Center
Sun 05:19:15 PM 36.1672 -114.6506 233° Southwest 240 276 8,200 -1,452 Descending Los Angeles Center
Sun 05:20:17 PM 36.1494 -114.7489 257° West 244 281 6,400 -964 Descending Los Angeles Center
Sun 05:21:32 PM 36.1389 -114.8467 262° West 242 278 6,000 -175 Descending Los Angeles Center
Sun 05:22:34 PM 36.1347 -114.9194 266° West 224 258 6,000 -537 Level Los Angeles Center
Sun 05:23:46 PM 36.1358 -115.0153 271° West 220 253 4,800 -947 Descending Los Angeles Center
Sun 05:24:47 PM 36.1381 -115.0758 273° West 161 185 3,900 -737 Descending Los Angeles Center
Sun 05:25:40 PM 36.1375 -115.1081 269° West 179 206 3,400 -730 Descending Los Angeles Center
Sun 05:26:42 PM 36.1125 -115.1511 234° Southwest 145 167 2,500 -871 Descending Los Angeles Center
Sun 05:28:00 PM 36.0801 -115.1523 219° Southwest  Level Estimated
Sun 05:35:00 PM 36.0801 -115.1523 219° Southwest  Level Estimated

Login

Don't have an account? Register now (free) for customized features, flight alerts, and more!